Latest Coastal Weather Observations for Wilsons Promontory

IDV60701

Issued at 4:41 pm EST Saturday 27 August 2016 (issued every 10 minutes, with the page automatically refreshed every 10 minutes)

About coastal observations | Map of coastal stations | Coastal observations for VIC | Marine services | Other Formats
Station Details ID: 085096 Name: WILSONS PROMONTORY LIGHTHOUSE Lat: -39.13 Lon: 146.42 Height: 95.0 m
Data from the previous 72 hours. | See also: Recent months at Wilsons Promontory
Date/Time
EST
Temp
°C
Wind Pressure Rain since
9am
mm
Weather Cloud Vis
km
Sea
Height
m
Swell
Dir  Spd
kts
Gust
kts
hPa Trend Height
m
Period
s
Dir
27/04:30pm 11.4 W 20 31 1015.7 - 0.0 - - - - - - -
27/04:00pm 11.5 W 18 32 1016.0 - 0.0 - - - - - - -
27/03:30pm 11.9 W 19 29 1015.9 - 0.0 - - - - - - -
27/03:00pm 12.1 W 18 34 1016.4 - 0.0 - - - - - - -
27/02:30pm 11.5 W 17 28 1016.8 - 0.0 - - - - - - -
27/02:00pm 11.6 W 24 40 1016.5 - 0.0 - - - - - - -
27/01:30pm 11.8 W 21 37 1016.9 - 0.0 - - - - - - -
27/01:00pm 11.7 W 19 34 1017.2 - 0.0 - - - - - - -
27/12:48pm 11.7 W 18 41 1017.3 - 0.0 - - - - - - -
27/12:30pm 11.9 W 16 31 1017.6 - 0.0 - - - - - - -
27/12:00pm 11.4 W 19 36 1018.2 - 0.0 - - - - - - -
27/11:30am 11.7 W 18 33 1018.4 - 0.0 - - - - - - -
27/11:00am 11.6 W 16 27 1018.6 - 0.0 - - - - - - -
27/10:30am 11.1 W 22 39 1018.6 - 0.0 - - - - - - -
27/10:25am 11.1 W 19 39 1018.1 - 0.0 - - - - - - -
27/10:04am 10.9 WNW 15 26 1018.4 - 0.0 - - - - - - -
27/10:00am 11.0 WNW 10 30 1018.7 - 0.0 - - - - - - -
27/09:30am 11.0 NNE 5 10 1018.9 - 0.0 - - - - - - -
27/09:00am 10.7 W 6 26 1019.3 - 6.2 - - - - - - -
27/08:30am 10.4 WNW 8 18 1019.2 - 6.2 - - - - - - -
27/08:00am 10.6 N 7 19 1019.0 - 6.2 - - - - - - -
27/07:40am 10.1 WNW 15 29 1018.8 - 6.2 - - - - - - -
27/07:30am 9.9 NW 13 26 1018.8 - 6.2 - - - - - - -
27/07:00am 9.9 WNW 17 33 1018.5 - 6.2 - - - - - - -
27/06:38am 9.9 WNW 15 29 1018.4 - 6.2 - - - - - - -
27/06:30am 9.9 W 13 27 1018.5 - 6.2 - - - - - - -
27/06:07am 9.6 WNW 15 28 1018.1 - 6.2 - - - - - - -
27/06:00am 9.4 WNW 11 25 1018.3 - 6.2 - - - - - - -
27/05:30am 9.4 NNW 8 22 1018.3 - 6.2 - - - - - - -
27/05:00am 9.1 NNW 9 19 1018.2 - 6.2 - - - - - - -
27/04:30am 9.3 NW 9 19 1018.1 - 6.2 - - - - - - -
27/04:00am 9.4 WNW 11 28 1018.0 - 6.2 - - - - - - -
27/03:30am 9.6 NW 11 27 1017.9 - 6.2 - - - - - - -
27/03:00am 10.0 NW 10 20 1018.2 - 6.2 - - - - - - -
27/02:30am 10.4 WNW 16 26 1018.2 - 6.2 - - - - - - -
27/02:21am 10.2 W 15 27 1018.2 - 6.2 - - - - - - -
27/02:00am 10.3 W 15 24 1018.6 - 6.2 - - - - - - -
27/01:35am 10.3 W 17 27 1018.8 - 6.2 - - - - - - -
27/01:30am 10.3 W 19 27 1018.6 - 6.2 - - - - - - -
27/01:00am 10.0 W 18 28 1018.8 - 6.2 - - - - - - -
27/12:42am 10.0 W 19 29 1018.7 - 6.2 - - - - - - -
27/12:30am 10.3 W 16 25 1019.1 - 6.2 - - - - - - -
27/12:00am 10.2 W 20 32 1019.1 - 6.2 - - - - - - -
 
Date/Time
EST
Temp
°C
Wind Pressure Rain since
9am
mm
Weather Cloud Vis
km
Sea
Height
m
Swell
Dir  Spd
kts
Gust
kts
hPa Trend Height
m
Period
s
Dir
26/11:33pm 10.0 W 20 32 1018.9 - 6.0 - - - - - - -
26/11:30pm 10.0 W 18 24 1019.0 - 6.0 - - - - - - -
26/11:10pm 9.7 W 15 30 1019.1 - 6.0 - - - - - - -
26/11:00pm 9.6 W 16 23 1019.3 - 6.0 - - - - - - -
26/10:30pm 9.6 W 20 30 1019.0 - 5.8 - - - - - - -
26/10:00pm 9.5 W 20 31 1019.0 - 4.6 - - - - - - -
26/09:32pm 9.9 W 22 33 1018.7 - 2.8 - - - - - - -
26/09:30pm 9.9 W 21 30 1018.8 - 2.8 - - - - - - -
26/09:00pm 9.7 W 20 31 1019.0 - 2.8 - - - - - - -
26/08:37pm 9.7 W 18 29 1018.8 - 2.4 - - - - - - -
26/08:30pm 9.7 W 19 26 1018.8 - 2.4 - - - - - - -
26/08:02pm 9.8 W 19 29 1018.9 - 1.4 - - - - - - -
26/08:00pm 10.0 W 18 25 1018.9 - 1.2 - - - - - - -
26/07:30pm 9.9 W 19 29 1018.8 - 1.2 - - - - - - -
26/07:22pm 9.8 W 18 28 1018.7 - 1.2 - - - - - - -
26/07:00pm 9.5 W 19 28 1018.5 - 1.2 - - - - - - -
26/06:31pm 9.3 W 18 29 1018.4 - 1.2 - - - - - - -
26/06:30pm 9.3 W 18 26 1018.4 - 1.2 - - - - - - -
26/06:06pm 9.4 W 22 32 1018.1 - 1.2 - - - - - - -
26/06:00pm 9.3 W 19 28 1018.3 - 1.2 - - - - - - -
26/05:30pm 9.2 W 21 31 1017.9 - 0.6 - - - - - - -
26/05:00pm 9.2 W 23 35 1017.8 - 0.4 - - - - - - -
26/04:30pm 10.0 W 25 35 1017.6 - 0.0 - - - - - - -
26/04:03pm 10.3 W 16 26 1017.7 - 0.0 - - - - - - -
26/04:00pm 10.2 W 17 26 1017.6 - 0.0 - - - - - - -
26/03:30pm 10.7 W 17 28 1017.6 - 0.0 - - - - - - -
26/03:07pm 11.2 W 20 30 1017.3 - 0.0 - - - - - - -
26/03:00pm 11.3 W 19 26 1017.6 - 0.0 - - - - - - -
26/02:47pm 11.5 W 19 29 1017.4 - 0.0 - - - - - - -
26/02:30pm 11.8 W 21 29 1017.3 - 0.0 - - - - - - -
26/02:01pm 11.4 W 23 33 1017.2 - 0.0 - - - - - - -
26/02:00pm 11.4 W 24 33 1017.3 - 0.0 - - - - - - -
26/01:31pm 10.9 W 18 28 1017.8 - 0.0 - - - - - - -
26/01:30pm 10.8 W 19 28 1017.8 - 0.0 - - - - - - -
26/01:02pm 11.4 W 20 30 1017.8 - 0.0 - - - - - - -
26/01:00pm 11.3 W 21 30 1017.8 - 0.0 - - - - - - -
26/12:30pm 11.2 W 24 32 1017.9 - 0.0 - - - - - - -
26/12:01pm 11.5 W 20 30 1018.2 - 0.0 - - - - - - -
26/12:00pm 11.6 W 19 27 1018.3 - 0.0 - - - - - - -
26/11:31am 11.4 W 21 31 1018.5 - 0.0 - - - - - - -
26/11:30am 11.3 W 22 31 1018.5 - 0.0 - - - - - - -
26/11:00am 11.5 W 22 29 1018.5 - 0.0 - - - - - - -
26/10:30am 11.1 W 24 31 1018.3 - 0.0 - - - - - - -
26/10:00am 10.7 W 20 27 1018.2 - 0.0 - - - - - - -
26/09:53am 10.7 W 17 27 1018.3 - 0.0 - - - - - - -
26/09:30am 11.0 W 19 28 1018.4 - 0.0 - - - - - - -
26/09:07am 10.6 W 22 32 1018.3 - 0.0 - - - - - - -
26/09:00am 10.6 W 24 32 1018.3 - 0.6 - - - - - - -
26/08:53am 10.8 W 20 30 1018.2 - 0.6 - - - - - - -
26/08:30am 10.5 W 19 27 1018.4 - 0.6 - - - - - - -
26/08:00am 9.5 W 15 20 1018.6 - 0.6 - - - - - - -
26/07:37am 8.7 W 22 31 1018.2 - 0.4 - - - - - - -
26/07:32am 9.8 WSW 24 34 1018.0 - 0.4 - - - - - - -
26/07:30am 9.9 WSW 26 34 1017.9 - 0.4 - - - - - - -
26/07:26am 10.0 WSW 31 34 1017.6 - 0.4 - - - - - - -
26/07:14am 9.5 W 18 28 1018.0 - 0.4 - - - - - - -
26/07:00am 9.4 WSW 19 28 1017.8 - 0.4 - - - - - - -
26/06:39am 9.8 W 16 29 1017.5 - 0.4 - - - - - - -
26/06:30am 9.6 W 14 23 1017.5 - 0.4 - - - - - - -
26/06:00am 9.4 W 15 21 1017.5 - 0.4 - - - - - - -
26/05:30am 9.0 W 12 19 1017.3 - 0.4 - - - - - - -
26/05:02am 9.4 W 15 26 1016.9 - 0.0 - - - - - - -
26/05:00am 9.7 W 15 21 1017.1 - 0.0 - - - - - - -
26/04:30am 9.5 W 12 20 1016.9 - 0.0 - - - - - - -
26/04:00am 10.1 W 17 23 1016.5 - 0.0 - - - - - - -
26/03:30am 10.2 WSW 17 25 1016.7 - 0.0 - - - - - - -
26/03:00am 9.7 W 14 22 1017.0 - 0.0 - - - - - - -
26/02:30am 9.8 W 14 22 1016.9 - 0.0 - - - - - - -
26/02:00am 10.2 WSW 26 31 1016.3 - 0.0 - - - - - - -
26/01:33am 10.3 W 17 27 1016.6 - 0.0 - - - - - - -
26/01:30am 10.3 W 17 25 1016.7 - 0.0 - - - - - - -
26/01:26am 10.3 WSW 21 31 1016.7 - 0.0 - - - - - - -
26/01:00am 10.4 WSW 25 31 1016.4 - 0.0 - - - - - - -
26/12:30am 10.4 SW 26 31 1016.1 - 0.0 - - - - - - -
26/12:00am 10.2 SW 20 30 1016.4 - 0.0 - - - - - - -
 
Date/Time
EST
Temp
°C
Wind Pressure Rain since
9am
mm
Weather Cloud Vis
km
Sea
Height
m
Swell
Dir  Spd
kts
Gust
kts
hPa Trend Height
m
Period
s
Dir
25/11:30pm 10.2 SW 24 34 1015.9 - 0.0 - - - - - - -
25/11:23pm 10.3 SW 23 34 1015.9 - 0.0 - - - - - - -
25/11:22pm 10.3 S 16 34 1015.9 - 0.0 - - - - - - -
25/11:21pm 10.3 S 14 31 1015.7 - 0.0 - - - - - - -
25/11:03pm 10.3 SW 20 30 1015.9 - 0.0 - - - - - - -
25/11:00pm 10.3 SW 21 30 1016.0 - 0.0 - - - - - - -
25/10:55pm 10.3 SW 24 34 1015.9 - 0.0 - - - - - - -
25/10:40pm 10.4 SW 26 32 1016.0 - 0.0 - - - - - - -
25/10:39pm 10.3 S 17 32 1016.0 - 0.0 - - - - - - -
25/10:38pm 10.5 SSE 12 29 1015.9 - 0.0 - - - - - - -
25/10:31pm 10.3 SW 22 32 1016.0 - 0.0 - - - - - - -
25/10:30pm 10.4 SW 23 32 1015.9 - 0.0 - - - - - - -
25/10:18pm 10.4 SW 16 33 1015.7 - 0.0 - - - - - - -
25/10:15pm 10.4 WSW 16 36 1015.7 - 0.0 - - - - - - -
25/10:00pm 10.4 SW 30 36 1015.5 - 0.0 - - - - - - -
25/09:30pm 10.6 SW 27 34 1015.6 - 0.0 - - - - - - -
25/09:00pm 10.7 SW 30 34 1015.5 - 0.0 - - - - - - -
25/08:30pm 10.6 SW 29 34 1015.1 - 0.0 - - - - - - -
25/08:00pm 10.6 WSW 32 35 1014.7 - 0.0 - - - - - - -
25/07:30pm 10.6 SW 25 31 1014.6 - 0.0 - - - - - - -
25/07:00pm 10.3 WSW 28 35 1014.5 - 0.0 - - - - - - -
25/06:37pm 9.9 WSW 22 35 1014.3 - 0.0 - - - - - - -
25/06:30pm 10.0 SW 33 35 1013.7 - 0.0 - - - - - - -
25/06:29pm 10.2 SW 33 35 1013.7 - 0.0 - - - - - - -
25/06:27pm 10.7 WSW 21 34 1014.0 - 0.0 - - - - - - -
25/06:00pm 10.5 WSW 25 29 1013.7 - 0.0 - - - - - - -
25/05:30pm 10.6 WSW 26 29 1013.4 - 0.0 - - - - - - -
25/05:00pm 10.4 WSW 27 31 1012.9 - 0.0 - - - - - - -
25/04:30pm 10.4 SW 29 33 1012.6 - 0.0 - - - - - - -
25/04:00pm 10.3 SW 26 31 1012.7 - 0.0 - - - - - - -
25/03:30pm 10.3 SW 27 32 1012.6 - 0.0 - - - - - - -
25/03:00pm 10.1 SW 27 31 1012.4 - 0.0 - - - - - - -
25/02:30pm 10.3 WSW 23 28 1012.2 - 0.0 - - - - - - -
25/02:00pm 10.2 WSW 24 27 1012.0 - 0.0 - - - - - - -
25/01:30pm 10.1 SW 21 27 1012.1 - 0.0 - - - - - - -
25/01:04pm 10.0 SW 16 26 1012.0 - 0.0 - - - - - - -
25/01:00pm 9.9 SW 17 26 1011.9 - 0.0 - - - - - - -
25/12:51pm 10.0 SW 16 26 1011.9 - 0.0 - - - - - - -
25/12:30pm 10.1 SW 24 28 1012.0 - 0.0 - - - - - - -
25/12:00pm 10.1 SW 26 32 1011.9 - 0.0 - - - - - - -
25/11:30am 10.0 WSW 25 29 1011.9 - 0.0 - - - - - - -
25/11:00am 10.0 WSW 27 31 1011.8 - 0.0 - - - - - - -
25/10:30am 9.6 WSW 27 30 1011.6 - 0.0 - - - - - - -
25/10:00am 9.8 WSW 21 24 1011.6 - 0.0 - - - - - - -
25/09:30am 9.8 SW 19 26 1011.5 - 0.0 - - - - - - -
25/09:00am 9.4 SW 23 29 1011.5 - 2.6 - - - - - - -
25/08:30am 9.4 SW 27 32 1010.9 - 2.6 - - - - - - -
25/08:00am 9.2 WSW 25 30 1010.8 - 2.6 - - - - - - -
25/07:39am 9.2 SW 20 30 1010.5 - 2.6 - - - - - - -
25/07:30am 9.0 WSW 23 26 1010.7 - 2.6 - - - - - - -
25/07:00am 9.0 WSW 23 27 1010.6 - 2.6 - - - - - - -
25/06:40am 8.5 SW 20 26 1010.4 - 2.6 - - - - - - -
25/06:30am 7.5 W 13 16 1010.6 - 2.6 - - - - - - -
25/06:00am 7.9 W 17 25 1010.5 - 2.6 - - - - - - -
25/05:52am 8.5 W 20 31 1010.1 - 2.2 - - - - - - -
25/05:30am 8.2 SW 30 36 1009.4 - 2.2 - - - - - - -
25/05:28am 8.2 SW 30 35 1009.6 - 2.2 - - - - - - -
25/05:20am 8.7 WSW 17 28 1010.1 - 2.2 - - - - - - -
25/05:00am 8.2 SW 19 27 1009.9 - 2.2 - - - - - - -
25/04:46am 8.0 SW 17 31 1009.5 - 2.2 - - - - - - -
25/04:41am 7.9 SW 17 33 1009.4 - 2.2 - - - - - - -
25/04:30am 7.4 WSW 32 38 1009.4 - 2.0 - - - - - - -
25/04:23am 7.5 WSW 31 35 1009.3 - 1.8 - - - - - - -
25/04:15am 8.4 W 15 30 1009.7 - 0.2 - - - - - - -
25/04:00am 9.1 W 14 23 1010.0 - 0.2 - - - - - - -
25/03:36am 9.5 WSW 15 25 1009.8 - 0.0 - - - - - - -
25/03:30am 9.5 WSW 17 24 1009.9 - 0.0 - - - - - - -
25/03:00am 9.4 WSW 17 22 1010.0 - 0.0 - - - - - - -
25/02:30am 9.6 WSW 18 24 1009.9 - 0.0 - - - - - - -
25/02:00am 9.7 WSW 20 24 1010.2 - 0.0 - - - - - - -
25/01:30am 9.2 SW 10 22 1010.6 - 0.0 - - - - - - -
25/01:00am 9.6 W 12 19 1010.9 - 0.0 - - - - - - -
25/12:30am 9.0 W 14 19 1011.1 - 0.0 - - - - - - -
25/12:00am 9.3 W 17 23 1011.2 - 0.0 - - - - - - -
 
Date/Time
EST
Temp
°C
Wind Pressure Rain since
9am
mm
Weather Cloud Vis
km
Sea
Height
m
Swell
Dir  Spd
kts
Gust
kts
hPa Trend Height
m
Period
s
Dir
24/11:30pm 9.6 SW 11 19 1011.1 - 0.0 - - - - - - -
24/11:06pm 9.6 NW 8 24 1011.2 - 0.0 - - - - - - -
24/11:00pm 9.7 WSW 20 23 1011.3 - 0.0 - - - - - - -
24/10:56pm 9.6 SW 20 23 1011.3 - 0.0 - - - - - - -
24/10:36pm 9.6 W 10 24 1011.3 - 0.0 - - - - - - -
24/10:30pm 9.6 WSW 23 29 1011.4 - 0.0 - - - - - - -
24/10:00pm 9.8 WSW 22 25 1011.6 - 0.0 - - - - - - -
24/09:30pm 9.9 WSW 17 21 1011.9 - 0.0 - - - - - - -
24/09:00pm 9.3 W 13 24 1012.2 - 0.0 - - - - - - -
24/08:30pm 9.1 W 16 23 1012.0 - 0.0 - - - - - - -
24/08:00pm 9.8 WSW 14 21 1012.3 - 0.0 - - - - - - -
24/07:30pm 9.8 W 13 18 1012.2 - 0.0 - - - - - - -
24/07:00pm 9.9 WSW 18 24 1012.1 - 0.0 - - - - - - -
24/06:30pm 9.9 WSW 23 27 1011.9 - 0.0 - - - - - - -
24/06:00pm 9.9 WSW 23 26 1011.9 - 0.0 - - - - - - -
24/05:30pm 10.0 WSW 19 24 1011.7 - 0.0 - - - - - - -
24/05:00pm 10.2 WSW 17 22 1012.0 - 0.0 - - - - - - -

Other Formats:

Comma delimited format used in spreadsheet applications
http://www.bom.gov.au/fwo/IDV60701/IDV60701.94893.axf

JavaScript Object Notation format (JSON) in row-major order
http://www.bom.gov.au/fwo/IDV60701/IDV60701.94893.json